Airfield :
LOGIN :

Register | Disclaimer

   EN    FR    IT 

 










Legend :    VFR   Marginal VFR   IFR   Intensive IFR   Very Intensive IFR
Visi :
Ceiling :
>= 8 km
>= 3000ft
5 to 8 km
1000 to 3000 ft
1500m to 5 km
500 to 1000 ft
800 to 1500m
200 to 500 ft
< 800m
< 200 ft
Symbols :   Thunderstorms  Fog  Heavy snow  Heavy precipitations  Wind > 20 kt
SIGMETs :     Misc.  Thunderstorms  Icing  Turbulence  Mountain Waves  Volcanic Ashes






- Airport Elevation : 154 ft
- IATA code : SZZ


EPSC - Szczecin Goleniow

CURRENT METAR :
  • 160700Z 15005KT CAVOK 03/01 Q1010

EXPIRED METARs :
  • 160630Z 14004KT CAVOK 02/00 Q1009
  • 160600Z 16005KT CAVOK 03/01 Q1009
  • 160530Z 15006KT CAVOK 03/01 Q1010
  • 160500Z 15004KT CAVOK 03/01 Q1009
  • 160430Z 18005KT 150V230 CAVOK 04/01 Q1009

TAF TAF EPSC
Valid from the 16 at 06:00 until the 17 at 06:00 UTC


160530Z 1606/1706 18008KT CAVOK
BECMG 1613/1615 4000 -RA BR BKN010
PROB40
TEMPO 1615/1621 1500 -RADZ BR BKN002 OVC008
BECMG 1621/1623 6000 SCT015
PROB40
TEMPO 1700/1706 2000 BR



MET'MAP, your aeronautical weather chart ! - Copyright ORBIFLY December 2007 - Disclaimer

ORBIFLY MET'MAP TEAM :

Programming & Development : Alexandra Zaïnal
Concept & original design : Baudouin d'Aumeries
Assistance for programming : Marc-Olivier Méhu
Technical & hardware support : Manuel Goepfert

Contact : metmap@orbifly.com




SOURCES & CREDITS :

   NOAA